Latest Observation

108 Stations

10 Minute Data
as of 8/31/26 2:13 PM PDT
Station Date Time Temp (°F) RH (%) Dew Pt (°F) Wind Spd (mph) Wind Dir (°) Wind Gust (mph) Wind Gst Dir (°) Latest Rain (In) Soil Moist (%) Soil Temp (°F) Daily Rain (In) Daily Min Temp (°F) Daily Max Temp (°F) Daily Max Wind (mph)
Hobart Mills 8/31/26 1410 75.1   0.2 24   4 36.2   4.1 6.4   3.7 SW | 223 17.3   9.7 SSW | 196 0.00 7.6   0.0 65.4   0.4 0.00 40.1   4.5 76.7   0.7 17.3   1.6
Prosser Dam 8/31/26 1410 76.0   0.6 25   3 37.8   2.8 10.4   3.4 SW | 235 18.9   1.0 SW | 214 0.00 5.4   0.0 62.5   0.4 0.00 36.9   4.6 77.4   0.0 19.6   0.2
West Incline Village 8/31/26 1410 67.6   0.9 32   4 36.8   2.3 4.9   0.6 SW | 214 10.1   0.2 S | 187 0.00 11.8   0.1 58.8   0.2 0.00 53.0   1.6 69.1   0.8 11.9   0.9
Incline Village (Fairview Blvd) 8/31/26 1410 69.7   0.4 34   6 40.1   5.1 3.4   0.4 SW | 219 7.7   0.2 WSW | 243 0.00 7.8   0.0 72.0   0.1 0.00 54.1   0.8 71.5   0.8 9.8   0.6
Incline Village (Diamond Peak) 8/31/26 1410 66.6   0.1 33   3 36.6   2.7 1.6   0.7 W | 267 7.6   0.7 NW | 309 0.00 2.5   0.0 61.0   0.6 0.00 53.8   2.2 66.9   0.1 7.6   3.6
Incline Village (Mill Creek) 5/30/36 1610 74.5 37 46.5 0.5 SW | 236 1.7 SSW | 213 0.00 0.0 0.0 0.00 74.4 74.5 1.7
Incline Village (Lakeshore Blvd) 8/31/26 1410 70.4   0.4 41   10 45.6   6.8 2.0   0.1 SSW | 212 3.4   1.1 SSW | 213 0.00 19.0   0.9 63.6   0.3 0.00 46.4   3.3 70.8   0.5 4.5   0.2
Glenbrook 8/31/26 1410 72.7   1.0 34   3 42.7   3.5 2.1   1.7 W | 270 4.2   0.7 WSW | 256 0.00 42.8   0.1 59.5   0.4 0.00 49.2   4.7 73.2   0.4 6.1   1.4
Zephyr Cove 8/31/26 1410 70.8   0.7 30   8 37.7   6.7 2.0   0.8 NW | 306 6.1   1.9 NW | 311 0.00 2.8   0.1 65.9   2.6 0.00 51.9   1.6 71.8   0.2 9.3   2.6
Kingsbury Grade 8/31/26 1410 71.1   0.5 29   4 36.9   4.3 3.8   0.1 SW | 225 11.6   2.0 SW | 232 0.00 2.2   0.0 67.1   1.2 0.00 48.6   1.8 73.7   0.5 11.6   1.2
South Daggett Pass (Ridge) 8/31/26 1410 67.0   0.3 32   4 36.3   2.9 4.5   2.7 WNW | 292 13.3   5.3 NNW | 330 0.00 2.2   0.0 64.2   0.2 0.00 53.7   2.4 67.7   0.1 14.7   3.2
Palomino Valley 8/31/26 1410 84.5   4.0 16   0 33.5   3.1 9.9   5.5 SW | 216 17.4   3.4 SSW | 192 0.00 6.6   0.0 76.2   1.0 0.00 47.2   4.9 85.9   3.0 19.5   5.0
East Cold Springs 8/31/26 1410 79.3   3.5 20   0 35.2   3.0 6.6   2.2 W | 267 14.3   0.2 WSW | 256 0.00 1.6   0.0 70.9   0.6 0.00 56.1   7.1 80.7   3.8 16.0   3.4
Peavine 8/22/26 1700 81.6   1.5 27   0 44.0   1.5 22.7   10.4 SW | 225 48.4   26.2 SW | 220 0.00 - 53.4   0.0 0.00 69.4   2.1 87.6   2.1 48.4   26.2
West Verdi Peak 8/31/26 1510 75.7   2.1 23   1 35.4   3.0 3.1   0.5 SW | 226 10.8   1.0 ESE | 122 0.00 6.5   0.1 69.6   0.4 0.00 51.4   4.4 77.2   2.0 14.7   0.1
West Verdi 8/31/26 1410 81.5   3.9 19   1 34.8   1.5 6.5   1.3 S | 181 18.5   8.0 SSE | 166 0.00 6.3   0.0 79.8   0.8 0.00 50.2   4.4 82.8   4.6 18.5   4.9
South Verdi 8/31/26 1410 78.4   4.3 22   1 36.1   2.4 11.8   0.8 SW | 225 20.1   2.0 SW | 231 0.00 10.6   0.1 74.8   2.1 0.00 53.6   1.9 79.4   4.7 25.6   6.1
Northwest Reno 8/31/26 1410 80.5   4.6 20   0 35.4   3.3 7.1   0.9 SE | 124 13.7   0.5 S | 172 0.00 25.0   0.1 77.2   1.4 0.00 59.4   4.1 81.7   5.1 18.6   1.5
North Lawton 8/28/26 1620 63.8   17.1 74   52 55.4   16.5 1.5   11.6 ESE | 121 5.1   19.0 SE | 124 0.00 - 78.2   0.0 0.05 59.2   7.5 71.9   13.3 20.4   4.6
West Reno (Mogul) 8/31/26 1410 80.0   4.9 21   1 36.1   3.3 1.0   6.5 ENE | 76 8.8   6.1 SE | 144 0.00 19.7   0.1 79.0   0.1 0.00 54.5   4.9 81.2   5.7 12.0   2.8
Caughlin (Hunter Lake Trail) 8/31/26 1410 79.2   3.8 20   1 34.5   1.8 7.5   1.3 NE | 56 14.4   2.7 ENE | 60 0.00 16.5   0.0 74.2   0.6 0.00 59.1   5.5 80.0   3.8 14.4   0.2
ArrowCreek 8/31/26 1410 80.9   4.9 19   1 35.2   2.2 4.9   0.9 SSE | 158 13.2   0.2 SE | 137 0.00 - 32.0   0.0 0.00 55.2   3.5 82.4   5.3 24.8   10.2
Tracy 8/31/26 1410 84.1   3.7 14   2 30.6   0.7 3.6   2.6 W | 272 8.2   1.5 ENE | 70 0.00 16.1   0.1 78.8   0.6 0.00 57.6   2.6 85.1   4.3 12.9   2.1
Virginia Highlands 8/31/26 1410 77.9   3.6 19   0 31.9   2.4 5.3   1.8 S | 171 12.7   3.1 SSE | 167 0.00 8.0   0.0 74.5   0.1 0.00 59.5   5.3 78.3   3.4 17.6   0.1
Virginia City 8/31/26 1410 75.0   3.5 20   1 31.1   1.2 6.6   2.0 SSE | 158 13.9   3.7 SE | 141 0.00 4.8   0.1 73.3   0.9 0.00 60.2   5.3 76.2   3.7 20.2   3.3
Six Mile Canyon 8/31/26 1410 84.2   5.3 15   1 32.0   2.1 6.6   0.0 S | 179 19.5   2.9 S | 173 0.00 12.3   0.1 77.0   1.2 0.00 57.4   5.3 85.5   5.3 19.5   2.9
Mt Rose Highway 8/31/26 1410 71.9   2.6 25   1 33.8   3.4 4.5   0.9 SW | 219 15.0   5.3 WSW | 254 0.00 7.4   0.0 62.4   0.3 0.00 56.0   6.1 73.6   3.7 15.0   1.5
Pleasant Valley 8/31/26 1410 82.2   2.5 19   0 35.8   2.4 5.9   0.8 S | 184 11.3   0.6 WSW | 241 0.00 2.4   0.0 78.0   0.7 0.00 51.9   5.7 83.2   2.7 17.3   3.5
New Washoe City 8/31/26 1410 80.3   3.4 19   1 34.4   3.6 8.0   3.4 SW | 232 16.3   0.6 WSW | 244 0.00 3.5   0.0 74.1   0.1 0.00 51.9   4.1 81.4   3.1 17.1   0.2
Franktown Creek 8/31/26 1410 80.3   2.2 21   0 37.0   1.7 3.0   0.3 W | 271 12.4   0.1 NNW | 329 0.00 7.1   0.1 72.3   0.2 0.00 49.7   3.1 80.8   2.0 12.4   3.5
Musgrove Creek 8/31/26 1410 77.0   0.8 23   0 36.5   0.6 2.8   0.4 WSW | 247 11.9   5.5 SW | 226 0.00 10.2   0.1 61.1   0.3 0.00 57.7   6.1 77.7   1.2 13.0   4.4
East Carson 11/23/24 0110 28.6   28.4 - - 4.7   11.0 SW | 220 14.7   10.1 SW | 219 0.02 - 50.9   0.1 0.02 -25.9   79.1 42.9   14.6 16.0   10.7
Kings Canyon 8/31/26 1410 78.9   2.4 23   2 38.5   4.8 5.1   0.3 SSW | 208 12.4   0.1 S | 181 0.00 4.2   0.0 69.0   0.7 0.00 51.1   2.0 80.2   3.1 20.0   5.3
Carson City (Voltaire Canyon) 8/31/26 1410 80.6   3.4 22   2 37.7   5.4 9.4   5.1 WSW | 244 18.3   6.6 SSW | 210 0.00 2.8   0.1 79.0   0.2 0.00 59.5   3.8 82.3   3.9 20.1   3.7
Jacks Valley 8/31/26 1410 80.1   2.1 22   3 38.4   5.8 11.0   7.8 WNW | 290 19.2   10.6 NW | 311 0.00 4.6   0.1 79.6   2.3 0.00 54.0   4.1 80.7   2.0 19.2   2.4
Genoa 8/31/26 1410 81.5   1.9 22   0 39.5   1.7 3.5   2.9 NE | 42 13.4   9.9 NW | 326 0.00 2.6   0.1 85.7   0.9 0.00 54.5   5.9 82.8   2.0 13.4   6.2
South Genoa (Walleys Hot Springs) 8/31/26 1410 81.9   2.9 22   1 39.0   4.0 8.7   5.6 NW | 311 19.0   10.9 NW | 319 0.00 4.6   0.0 74.1   0.2 0.00 45.8   4.2 82.9   2.9 20.9   10.1
SW Gardnerville (HWY 88) 8/31/26 1410 80.5   2.8 25   2 41.6   4.3 9.7   7.0 WNW | 301 16.5   10.3 NW | 308 0.00 2.8   0.0 69.4   0.6 0.00 46.1   3.6 81.2   2.6 16.5   6.3
Sheridan 8/31/26 1410 81.5   2.8 22   1 38.7   3.6 9.5   6.0 NNW | 338 19.2   10.2 NNW | 335 0.00 1.1   0.0 74.0   1.0 0.00 50.7   5.3 82.6   3.4 19.2   9.9
Ruhenstroth 8/31/26 1410 81.9   4.1 17   0 32.3   2.8 8.3   4.7 NW | 310 15.6   2.7 NW | 320 0.00 7.0   0.1 80.0   2.1 0.00 49.8   0.6 82.8   3.8 23.4   9.9
Double Spring 8/31/26 1410 77.2   2.2 20   1 33.5   3.0 7.3   4.3 NW | 320 17.5   10.9 NW | 314 0.00 25.6   0.2 76.6   3.2 0.00 45.7   7.0 77.9   2.1 17.5   2.7
North Topaz Lake 8/31/26 1410 80.0   2.8 18   0 33.0   3.0 6.1   1.1 N | 1 13.3   0.9 WSW | 243 0.00 7.9   0.1 91.6   1.0 0.00 58.9   0.9 80.8   2.6 15.6   1.5
Wild Oat Mountain 8/31/26 1410 77.9   3.8 20   1 33.6   4.2 6.1   1.9 NNW | 327 12.5   5.0 NW | 310 0.00 5.9   0.0 76.1   2.0 0.00 59.1   5.1 79.2   3.9 19.8   5.1
Smith Valley 8/31/26 1410 83.1   4.3 18   1 35.1   2.1 4.9   0.1 ESE | 119 11.9   3.2 SE | 126 0.00 2.8   0.0 75.4   1.3 0.00 55.4   5.4 83.9   4.3 12.3   0.7
Pine Grove Mountain 8/31/26 1410 67.2   3.9 23   5 27.7   1.2 9.4   3.3 WNW | 303 15.3   1.4 NNW | 327 0.00 7.5   0.2 66.4   1.2 0.00 55.4   4.0 69.0   3.7 18.5   0.6
Paradise Hill 8/31/26 1410 85.0   8.0 14   5 29.8   1.3 5.7   1.5 S | 179 14.9   1.2 S | 170 0.00 10.2   0.1 77.3   0.9 0.00 43.8   2.7 85.9   7.8 17.1   2.4
Winnemucca 8/31/26 1410 86.4   8.9 13   4 29.4   0.8 3.4   5.6 NW | 323 8.1   9.7 NNE | 17 0.00 5.7   0.0 74.0   0.1 0.00 49.4   0.2 87.3   9.1 23.7   6.0
NE Elko 8/31/26 1410 82.3   4.3 18   2 34.2   6.4 5.2   3.2 W | 275 9.9   7.2 NW | 308 0.00 5.7   0.0 71.0   1.0 0.00 38.9   6.4 82.9   4.4 14.7   5.3
North Elko 8/31/26 1400 81.0   6.3 18   1 33.6   3.9 4.3   4.8 SE | 141 13.4   3.9 SE | 130 0.00 24.8   0.0 72.5   0.5 0.00 51.0   3.0 82.3   6.5 15.5   3.5
South Elko 8/31/26 1410 78.3   0.7 19   0 33.3   0.6 6.2   3.5 SSE | 162 12.4   7.1 S | 174 0.00 13.7   0.1 69.8   0.2 0.00 54.6   4.1 - 17.9   1.7
Lamoille 8/31/26 1410 78.2   3.7 23   4 37.1   7.4 13.9   7.5 ENE | 59 18.8   4.5 ENE | 59 0.00 6.5   0.1 66.5   0.7 0.00 48.4   0.5 79.8   4.0 18.8   1.9
Reid Gardner Sub 8/31/26 1410 98.9   1.2 23   6 54.9   7.3 14.2   2.6 S | 174 27.0   4.2 SSE | 162 0.00 24.4   0.6 89.5   2.1 0.00 69.3   19.2 99.4   2.0 27.6   0.9
Corn Creek 8/31/26 1410 93.6   0.6 20   1 46.1   1.5 16.0   3.7 ESE | 116 23.4   7.7 ESE | 115 0.00 3.2   0.1 92.0   1.9 0.00 73.8   8.6 95.0   0.2 33.4   2.4
Lucky Strike 8/31/26 1410 80.5   0.8 23   5 38.8   6.0 13.2   5.9 SSE | 165 25.1   9.7 S | 173 0.00 3.1   0.0 85.1   0.3 0.00 69.0   4.5 82.0   1.4 29.7   11.8
Lower Angel Peak 8/31/26 1410 76.0   0.5 27   6 39.5   5.6 5.6   1.9 ESE | 121 16.6   1.1 E | 82 0.00 3.2   0.1 74.0   2.2 0.00 61.8   4.8 77.7   0.9 22.7   3.7
Angel Peak 8/31/26 1410 63.1   0.2 37   8 36.5   6.0 18.6   2.3 S | 172 27.4   5.1 SSE | 163 0.00 2.5   0.1 68.1   0.6 0.00 54.9   2.4 64.7   1.4 30.6   3.1
Upper Kyle Canyon 8/31/26 1410 67.4   0.3 36   3 39.3   2.7 10.2   1.9 E | 94 22.7   4.1 E | 90 0.00 7.8   0.0 75.1   1.0 0.00 60.3   0.8 69.6   1.3 32.7   1.7
Mt Charleston 8/31/26 1410 68.0   0.2 35   3 39.3   2.1 5.3   1.1 ESE | 121 14.7   7.6 E | 100 0.00 13.4   0.1 69.6   0.9 0.00 59.2   0.2 69.2   1.2 23.1   5.2
Mid Kyle Canyon 8/31/26 1410 75.6   1.3 28   0 39.8   0.9 11.7   4.0 S | 179 19.5   10.2 SSW | 192 0.00 5.8   0.1 74.2   2.2 0.00 60.5   5.8 77.4   0.9 26.7   3.0
Blue Diamond 8/31/26 1410 91.0   0.9 20   1 44.4   0.2 9.2   3.0 SSE | 162 19.2   0.6 SSE | 149 0.00 1.3   0.0 88.8   1.5 0.00 70.1   11.5 91.9   0.2 25.0   1.7
Artesian Sub 8/31/26 1410 99.3   1.7 20   4 50.8   3.9 4.2   1.9 SE | 127 12.2   2.6 SSE | 152 0.00 11.8   0.0 94.3   0.4 0.00 81.1   8.0 100.7   1.6 21.1   1.4
North Henderson 8/31/26 1410 98.7   2.2 21   5 52.0   5.0 15.8   5.8 SE | 146 31.2   12.4 SSE | 162 0.00 10.6   0.0 98.7   0.9 0.00 84.4   6.7 99.3   2.8 31.2   3.6
Sandy Valley 8/31/26 1410 93.6   0.3 21   1 47.7   1.5 14.3   3.8 WSW | 250 23.1   4.2 W | 259 0.00 8.5   0.3 92.2   0.6 0.00 74.2   5.8 94.6   0.3 25.6   2.0
Searchlight 8/31/26 1410 89.6   3.4 29   5 53.2   2.4 19.2   3.6 SSE | 166 31.3   6.5 S | 173 0.00 6.1   0.1 90.0   1.9 0.00 70.9   8.2 90.8   3.0 34.3   5.7
Laughlin 8/31/26 1410 102.0   4.8 31   10 65.7   7.0 15.8   1.9 SSE | 156 23.7   2.9 SE | 145 0.00 4.6   0.1 102.0   0.9 0.00 89.6   0.4 103.0   4.7 42.8   3.9
31Mission Hills 8/31/26 1410 93.9   3.3 23   7 50.4   6.5 20.9   7.1 S | 169 34.3   10.8 S | 172 0.00 7.4   0.1 95.7   1.2 0.00 80.9   4.7 95.8   2.2 37.0   8.9
32 Enterprise Sierra Cliffs 8/31/26 1410 92.5   0.7 18   1 43.2   1.3 12.9   1.4 SSW | 194 23.0   3.2 SSW | 200 0.00 1.5   0.1 94.8   2.1 0.00 78.0   4.9 93.6   0.7 24.7   6.6
29 Calico Basin 8/31/26 1410 90.1   3.3 18   1 40.3   1.0 13.4   1.1 SSE | 158 20.1   1.1 SSW | 192 0.00 2.6   0.1 86.1   2.7 0.00 75.4   6.2 91.1   0.3 28.6   3.6
28 Indian Springs 8/31/26 1410 93.4   0.2 14   7 38.0   16.6 14.1   4.1 SW | 228 27.6   0.5 SW | 236 0.00 4.7   0.1 88.8   2.3 0.00 70.1   12.7 94.5   1.6 27.6   6.5
30 Jean 8/31/26 1410 93.4   0.3 18   1 43.1   1.8 15.4   3.0 SW | 216 24.5   2.9 SSW | 208 0.00 5.4   0.2 92.7   1.5 0.00 71.0   5.5 94.6   0.0 30.3   2.1
VC Highlands NW 8/31/26 1410 76.4   2.1 17   1 28.4   3.4 4.5   0.5 SW | 214 11.4   1.2 WSW | 244 0.00 1.7   0.1 71.4   1.4 0.00 59.3   7.3 77.3   2.7 17.1   0.6
Glenbrook-Spooner Summit 8/31/26 1410 67.1   1.3 30   5 34.4   3.9 7.1   1.0 WSW | 239 15.6   3.5 WSW | 243 0.00 7.9   0.1 69.2   1.6 0.00 47.8   6.1 68.9   0.4 16.4   1.6
Hobo Hot Springs 8/31/26 1410 82.1   1.6 20   3 36.6   5.5 6.5   0.3 WNW | 297 13.7   0.2 WNW | 282 0.00 1.0   0.1 71.6   0.4 0.00 44.5   4.1 83.8   2.5 21.2   7.8
Jack Valley Ranch 2 8/31/26 1410 79.5   1.6 21   2 35.7   3.5 8.2   4.3 W | 278 18.0   10.1 W | 278 0.00 2.1   0.0 74.8   1.5 0.00 54.6   5.2 80.5   2.1 21.0   7.7
Genoa North 2 8/31/26 1410 81.6   3.3 19   2 35.6   4.8 4.8   3.2 SSW | 210 12.2   6.8 WSW | 252 0.00 0.8   0.0 75.4   1.8 0.00 53.9   4.7 82.6   3.6 17.3   5.5
Mottsville 2 8/31/26 1410 80.3   2.2 20   1 36.1   3.6 6.1   2.0 NNE | 23 13.3   4.2 NNE | 33 0.00 1.2   0.0 72.0   1.2 0.00 47.5   3.6 82.0   3.6 19.6   8.8
Kingsbury Village 3 8/31/26 1410 67.9   0.7 28   3 33.6   3.2 3.6   1.6 NW | 314 9.3   2.0 NW | 315 0.00 3.2   0.0 61.8   1.1 0.00 49.3   3.5 68.4   0.4 9.3   0.9
Kingsbury-Benjamin Dr 2 8/31/26 1410 68.2   0.2 28   4 33.7   3.4 2.2   0.8 W | 268 6.5   8.0 SW | 222 0.00 3.4   0.2 69.5   2.6 0.00 52.9   4.6 69.0   0.9 12.9   1.5
Smith Valley-Wellington 8/31/26 1410 83.7   4.9 15   2 31.8   1.5 5.2   0.6 ESE | 109 10.9   0.1 ESE | 121 0.00 3.6   0.0 79.3   0.9 0.00 55.5   9.3 84.3   5.0 14.0   0.7
Sheridan South 2 8/31/26 1410 80.8   3.1 22   1 38.0   3.3 8.0   6.0 N | 360 16.6   9.2 N | 3 0.00 0.5   0.0 73.6   1.6 0.00 47.0   2.9 81.6   3.2 16.6   5.1
Silver Springs 8/31/26 1410 83.6   5.3 12   3 26.6   1.5 6.5   1.7 SE | 142 13.5   3.1 SSE | 150 0.00 5.0   0.0 79.5   0.5 0.00 54.2   2.5 84.0   5.0 13.5   2.2
Fernley 8/31/26 1410 84.9   6.1 12   2 27.3   0.9 4.7   1.4 E | 84 10.3   2.0 ENE | 69 0.00 3.1   0.1 82.7   1.6 0.00 54.9   1.5 85.5   5.5 13.3   6.2
Spanish Springs 8/31/26 1410 84.0   4.2 15   1 32.0   2.5 3.3   1.3 SSW | 192 11.0   1.1 SSE | 148 0.00 10.4   0.0 77.7   0.8 0.00 47.8   2.2 84.9   4.5 13.9   2.5
Suttcliffe South 2 8/31/26 1410 82.0   5.6 13   7 26.7   5.8 9.5   1.0 ENE | 65 14.5   0.2 ENE | 64 0.00 4.4   0.0 78.8   1.5 0.00 51.5   5.6 83.0   5.1 14.5   1.4
Lemmon Valley North 8/31/26 1410 80.5   4.2 17   1 31.8   4.4 6.1   2.4 SSE | 153 11.0   0.4 S | 188 0.00 2.1   0.1 71.6   1.1 0.00 39.0   3.1 81.2   4.1 16.5   0.4
Lemmon Valley NW 3 8/31/26 1410 81.1   3.7 17   1 32.1   4.7 12.6   5.3 SSE | 164 20.1   6.8 SSE | 150 0.00 1.3   0.0 78.2   1.8 0.00 46.0   5.3 82.1   3.4 20.1   5.0
VC Highlands North 8/31/26 1410 77.7   3.4 16   1 28.4   4.8 7.4   3.0 WSW | 247 16.3   6.1 NW | 323 0.00 5.5   0.2 90.9   2.9 0.00 46.1   5.6 78.8   4.2 16.8   2.2
Upper Voltaire Cyn 8/31/26 1410 77.1   2.7 21   3 34.1   5.5 9.5   6.7 SW | 223 18.9   10.3 SW | 214 0.00 1.1   0.1 72.3   1.7 0.00 58.5   1.5 78.5   3.4 20.1   2.6
Yerington NW 8/31/26 1410 82.1   4.6 18   3 34.9   0.2 6.2   3.3 SSE | 157 12.0   4.2 S | 169 0.00 7.2   0.0 76.1   1.3 0.00 46.4   1.3 82.6   4.7 12.0   1.9
Spanish Springs SW 8/31/26 1410 82.0   3.3 16   0 30.8   2.0 8.6   2.4 SSE | 162 16.9   6.1 SSW | 209 0.00 1.6   0.1 78.4   1.6 0.00 52.2   4.6 82.4   2.8 17.4   4.6
Cosgrave 2 8/27/26 0750 62.9   4.1 34   3 33.8   1.4 2.6   0.5 WSW | 246 4.1   1.0 W | 267 0.00 3.8   0.1 77.4   2.9 0.00 62.7   3.3 77.4   3.5 11.2   3.9
Winnemucca-Grass Valley 2 8/31/26 1410 85.0   8.2 13   5 29.1   0.8 2.0   4.0 SSE | 149 6.0   8.8 ESE | 118 0.00 7.9   0.1 71.6   0.1 0.00 39.7   0.7 85.3   8.2 14.0   0.8
Winnemucca-Dutch Flat Rd 8/31/26 1410 84.3   7.6 12   3 25.6   0.1 4.5   2.1 ESE | 114 8.9   5.0 SE | 141 0.00 6.2   0.1 73.8   0.2 0.00 51.5   0.7 84.9   7.2 13.8   3.7
Paradise Valley 2 8/31/26 1410 83.6   8.5 13   6 27.9   2.6 4.0   0.3 WSW | 240 8.9   0.1 WSW | 241 0.00 12.6   0.0 72.6   1.0 0.00 40.3   1.6 85.7   9.4 19.4   7.7
Golconda 2 8/31/26 1410 85.1   9.2 11   7 25.3   5.0 5.5   1.0 ESE | 118 14.0   5.1 ESE | 120 0.00 2.0   0.0 82.2   0.2 0.00 48.6   3.0 85.8   9.0 17.8   2.1
Battle Mountain - South 8/31/26 1410 85.9   5.8 12   0 28.0   5.4 4.1   1.6 E | 91 8.3   8.6 SW | 217 0.00 9.3   0.1 73.8   0.7 0.00 39.4   6.3 87.4   6.8 15.6   4.5
Geiger Summit 8/31/26 1410 74.1   3.5 100   0 74.1   3.5 5.6   1.6 SSW | 205 16.2   5.8 SSE | 158 0.00 6.1   0.1 66.6   1.8 0.00 56.9   4.8 74.9   3.5 17.4   3.1
Combs Canyon 3 8/31/26 1410 81.1   3.4 19   2 35.4   5.1 10.3   5.5 WSW | 241 18.4   6.7 WSW | 256 0.00 0.9   0.0 76.4   1.1 0.00 55.3   3.0 82.1   3.7 19.1   1.7
Clear Creek 8/31/26 1410 76.4   0.1 22   4 34.8   4.8 9.2   5.6 SW | 230 15.5   2.1 SSW | 208 0.00 3.4   0.1 70.0   1.5 0.00 51.9   4.7 77.4   0.6 19.9   6.5
Eastlake 2 8/31/26 1410 80.9   3.5 18   1 34.0   4.1 10.4   7.9 WSW | 238 21.5   15.2 WSW | 238 0.00 3.4   0.0 72.3   0.7 0.00 47.8   2.8 81.4   3.1 24.2   8.9
Lovelock-Colado 2 8/31/26 1410 85.1   5.3 13   2 28.5   1.3 10.4   7.7 SW | 236 17.1   8.8 WSW | 242 0.00 - 77.0   1.4 0.00 52.1   5.6 85.8   5.4 18.8   1.1
Spanish Springs NW 8/31/26 1410 83.1   4.6 16   1 31.9   1.9 5.3   1.6 SW | 218 11.2   1.6 SW | 224 0.00 12.8   0.1 72.3   0.2 0.00 49.0   3.8 84.0   4.8 16.2   1.1
Battle Mountain NW 8/31/26 1410 86.1   7.6 13   3 29.1   0.7 7.6   2.0 ESE | 105 12.9   2.1 ENE | 70 0.00 8.9   0.1 76.7   0.2 0.00 43.6   10.9 86.5   7.1 16.6   2.1
Austin 2 8/31/26 1310 70.9   2.9 27   14 35.3   15.6 11.1   1.3 ENE | 74 16.9   5.7 E | 79 0.01 2.6   0.0 80.1   2.4 0.01 37.4   2.8 77.0   1.2 27.4   3.8
Elko-Osino 8/31/26 1410 82.7   5.0 16   0 31.2   4.3 4.1   4.7 W | 265 11.7   5.6 W | 262 0.00 1.4   0.0 76.8   0.9 0.00 40.6   4.2 83.1   4.9 14.4   8.2
Elko-Bill Fishpond 2 8/31/26 1410 76.3   1.0 21   5 33.3   7.1 3.7   5.0 SSE | 152 8.8   8.9 SSE | 156 0.00 3.4   0.1 68.3   2.8 0.00 41.9   4.6 76.5   0.1 13.2   5.3
Spring Creek SE 2 8/31/26 1410 81.7   5.1 16   1 30.5   4.9 9.0   3.4 SSE | 166 19.9   5.6 SSW | 212 0.00 0.3   0.1 67.7   1.1 0.00 42.8   3.6 82.4   5.4 22.2   3.6
Spring Creek NW 8/31/26 1410 80.8   4.5 16   2 31.0   6.2 5.1   2.2 SSW | 197 10.8   6.3 SSW | 196 0.00 2.2   0.0 69.7   0.8 0.00 47.9   8.2 83.0   5.5 18.4   0.6
Max     102.0 100 74.1 20.9 - 34.3 - 0.01 42.8 102.0 0.01 89.6 103.0 42.8
Avg     80.4 22 36.5 7.5 - 15.2 - 0.00 6.8 74.6 - - - -
Min     63.1 11 25.3 0.5 - 1.7 - 0.00 0.0 0.0 0.00 36.9 64.7 1.7